createdAt,value
2023-05-09T00:02:22.148Z,16.13
2023-05-09T00:04:50.155Z,16.83
2023-05-09T00:07:17.975Z,15.32
2023-05-09T00:09:45.763Z,13.63
2023-05-09T00:12:13.549Z,14.55
2023-05-09T00:14:41.343Z,15.80
2023-05-09T00:17:09.570Z,14.30
2023-05-09T00:19:39.098Z,15.48
2023-05-09T00:22:07.214Z,16.42
2023-05-09T00:24:34.921Z,15.15
2023-05-09T00:27:02.432Z,14.30
2023-05-09T00:29:29.982Z,11.68
2023-05-09T00:31:57.569Z,13.07
2023-05-09T00:34:25.142Z,13.30
2023-05-09T00:36:52.714Z,11.90
2023-05-09T00:39:20.780Z,14.10
2023-05-09T00:41:48.564Z,11.95
2023-05-09T00:44:16.108Z,13.93
2023-05-09T00:46:44.189Z,20.48
2023-05-09T00:49:12.477Z,12.25
2023-05-09T00:51:40.735Z,12.82
2023-05-09T00:54:09.298Z,14.02
2023-05-09T00:56:37.262Z,14.40
2023-05-09T00:59:06.316Z,15.88
2023-05-09T01:01:33.928Z,15.50
2023-05-09T01:04:01.578Z,14.98
2023-05-09T01:06:32.714Z,15.25
2023-05-09T01:09:17.606Z,15.55
2023-05-09T01:11:49.123Z,15.80
2023-05-09T01:14:25.872Z,14.88
2023-05-09T01:17:06.668Z,15.15
2023-05-09T01:19:46.037Z,14.45
2023-05-09T01:22:14.848Z,15.13
2023-05-09T01:25:01.629Z,15.15
2023-05-09T01:27:44.535Z,16.77
2023-05-09T01:30:16.830Z,14.48
2023-05-09T01:32:46.609Z,16.02
2023-05-09T01:35:15.196Z,16.20
2023-05-09T01:37:44.163Z,16.58
2023-05-09T01:40:15.222Z,15.00
2023-05-09T01:42:53.305Z,16.42
2023-05-09T01:45:21.316Z,14.95
2023-05-09T01:47:49.884Z,14.82
2023-05-09T01:50:19.268Z,14.27
2023-05-09T01:52:48.391Z,14.35
2023-05-09T01:55:16.823Z,14.48
2023-05-09T01:57:46.244Z,13.38
2023-05-09T02:00:14.389Z,15.93
2023-05-09T02:02:42.263Z,11.98
2023-05-09T02:05:11.508Z,14.35
2023-05-09T02:07:41.132Z,14.20
2023-05-09T02:10:09.719Z,14.65
2023-05-09T02:12:38.423Z,15.75
2023-05-09T02:15:06.674Z,14.85
2023-05-09T02:17:34.512Z,15.00
2023-05-09T02:20:02.162Z,13.50
2023-05-09T02:22:29.865Z,12.30
2023-05-09T02:24:58.551Z,15.93
2023-05-09T02:27:27.009Z,13.48
2023-05-09T02:29:57.589Z,14.10
2023-05-09T02:32:28.217Z,16.27
2023-05-09T02:34:56.485Z,15.07
2023-05-09T02:37:24.990Z,13.70
2023-05-09T02:39:52.570Z,14.30
2023-05-09T02:42:22.519Z,14.90
2023-05-09T02:44:50.394Z,13.38
2023-05-09T02:47:18.075Z,13.82
2023-05-09T02:49:45.592Z,14.95
2023-05-09T02:52:13.563Z,13.60
2023-05-09T02:54:41.192Z,14.23
2023-05-09T02:57:08.825Z,13.68
2023-05-09T02:59:36.461Z,14.55
2023-05-09T03:02:04.273Z,16.02
2023-05-09T03:04:32.508Z,16.20
2023-05-09T03:07:00.556Z,14.35
2023-05-09T03:09:32.245Z,16.75
2023-05-09T03:11:59.820Z,16.60
2023-05-09T03:14:27.363Z,17.58
2023-05-09T03:16:56.012Z,15.57
2023-05-09T03:19:33.008Z,16.63
2023-05-09T03:22:00.882Z,13.95
2023-05-09T03:24:30.817Z,16.45
2023-05-09T03:26:58.678Z,17.77
2023-05-09T03:29:26.568Z,16.85
2023-05-09T03:31:55.215Z,16.67
2023-05-09T03:34:23.104Z,17.13
2023-05-09T03:36:50.771Z,20.33
2023-05-09T03:39:18.549Z,16.17
2023-05-09T03:41:49.119Z,16.30
2023-05-09T03:44:16.868Z,16.40
2023-05-09T03:46:44.731Z,18.20
2023-05-09T03:49:12.988Z,16.90
2023-05-09T03:51:42.320Z,17.08
2023-05-09T03:54:14.365Z,16.00
2023-05-09T03:56:41.998Z,17.20
2023-05-09T03:59:10.091Z,15.98
2023-05-09T04:01:40.250Z,17.77
2023-05-09T04:04:08.625Z,16.10
2023-05-09T04:06:38.126Z,16.67
2023-05-09T04:09:07.775Z,18.65
2023-05-09T04:11:35.626Z,17.10
2023-05-09T04:14:07.021Z,17.58
2023-05-09T04:16:36.721Z,16.20
2023-05-09T04:19:04.977Z,15.43
2023-05-09T04:21:32.713Z,16.67
2023-05-09T04:24:02.358Z,17.70
2023-05-09T04:26:38.347Z,16.05
2023-05-09T04:29:08.805Z,15.38
2023-05-09T04:31:37.143Z,17.50
2023-05-09T04:34:06.418Z,16.05
2023-05-09T04:36:35.759Z,16.38
2023-05-09T04:39:05.156Z,16.17
2023-05-09T04:41:34.072Z,14.43
2023-05-09T04:44:01.965Z,14.63
2023-05-09T04:46:29.533Z,16.88
2023-05-09T04:48:57.748Z,13.23
2023-05-09T04:51:25.268Z,14.00
2023-05-09T04:53:52.818Z,12.40
2023-05-09T04:56:24.248Z,11.82
2023-05-09T04:58:52.995Z,13.82
2023-05-09T05:01:20.726Z,15.07
2023-05-09T05:03:48.303Z,13.75
2023-05-09T05:06:15.966Z,15.30
2023-05-09T05:08:44.869Z,13.52
2023-05-09T05:11:13.574Z,14.88
2023-05-09T05:13:41.294Z,13.45
2023-05-09T05:16:09.173Z,15.57
2023-05-09T05:18:36.860Z,29.88
2023-05-09T05:21:05.165Z,15.18
2023-05-09T05:23:33.108Z,10.73
2023-05-09T05:26:00.765Z,13.95
2023-05-09T05:28:30.843Z,16.45
2023-05-09T05:30:58.468Z,14.95
2023-05-09T05:33:26.024Z,13.85
2023-05-09T05:35:54.135Z,13.02
2023-05-09T05:38:22.664Z,13.05
2023-05-09T05:40:54.156Z,10.75
2023-05-09T05:43:22.431Z,13.00
2023-05-09T05:45:50.400Z,12.00
2023-05-09T05:48:21.918Z,16.83
2023-05-09T05:50:49.650Z,10.43
2023-05-09T05:53:20.520Z,13.65
2023-05-09T05:55:49.396Z,11.90
2023-05-09T05:58:17.153Z,13.35
2023-05-09T06:00:44.769Z,12.65
2023-05-09T06:03:14.200Z,13.40
2023-05-09T06:05:48.331Z,11.93
2023-05-09T06:08:16.097Z,12.93
2023-05-09T06:10:43.632Z,14.90
2023-05-09T06:13:11.962Z,14.27
2023-05-09T06:15:43.101Z,14.10
2023-05-09T06:18:11.306Z,13.38
2023-05-09T06:20:38.916Z,13.10
2023-05-09T06:23:06.469Z,13.50
2023-05-09T06:25:34.080Z,12.18
2023-05-09T06:28:01.642Z,13.15
2023-05-09T06:30:29.292Z,11.18
2023-05-09T06:32:58.114Z,12.55
2023-05-09T06:35:26.253Z,11.38
2023-05-09T06:37:53.853Z,10.93
2023-05-09T06:40:21.448Z,12.65
2023-05-09T06:42:49.095Z,12.43
2023-05-09T06:45:17.253Z,12.30
2023-05-09T06:47:45.292Z,12.32
2023-05-09T06:50:12.820Z,12.43
2023-05-09T06:52:40.342Z,11.43
2023-05-09T06:55:08.460Z,10.20
2023-05-09T06:57:36.154Z,13.07
2023-05-09T07:00:05.018Z,10.82
2023-05-09T07:02:32.636Z,12.65
2023-05-09T07:05:00.663Z,11.05
2023-05-09T07:07:28.226Z,12.13
2023-05-09T07:10:07.284Z,11.18
2023-05-09T07:12:38.591Z,10.38
2023-05-09T07:15:06.712Z,10.88
2023-05-09T07:17:34.260Z,11.68
2023-05-09T07:20:03.927Z,14.25
2023-05-09T07:22:32.162Z,11.52
2023-05-09T07:25:00.650Z,11.27
2023-05-09T07:27:28.171Z,14.48
2023-05-09T07:29:55.897Z,13.25
2023-05-09T07:32:23.631Z,11.40
2023-05-09T07:34:51.265Z,11.93
2023-05-09T07:37:18.871Z,13.05
2023-05-09T07:39:47.494Z,11.98
2023-05-09T07:42:16.355Z,11.20
2023-05-09T07:44:43.943Z,12.93
2023-05-09T07:47:11.469Z,11.88
2023-05-09T07:49:40.493Z,11.10
2023-05-09T07:52:08.093Z,11.88
2023-05-09T07:54:35.630Z,12.10
2023-05-09T07:57:03.169Z,12.30
2023-05-09T07:59:30.751Z,12.75
2023-05-09T08:01:58.451Z,12.40
2023-05-09T08:04:26.258Z,10.95
2023-05-09T08:06:53.855Z,10.18
2023-05-09T08:09:21.714Z,12.27
2023-05-09T08:11:49.255Z,14.13
2023-05-09T08:14:16.783Z,11.68
2023-05-09T08:16:44.359Z,14.82
2023-05-09T08:19:11.861Z,13.07
2023-05-09T08:21:39.388Z,14.43
2023-05-09T08:24:08.102Z,11.70
2023-05-09T08:26:35.897Z,14.35
2023-05-09T08:29:03.500Z,12.93
2023-05-09T08:31:31.055Z,14.65
2023-05-09T08:33:58.659Z,13.35
2023-05-09T08:36:26.228Z,16.20
2023-05-09T08:38:53.748Z,15.13
2023-05-09T08:41:27.786Z,13.60
2023-05-09T08:43:55.569Z,14.02
2023-05-09T08:46:30.374Z,13.20
2023-05-09T08:48:58.545Z,15.02
2023-05-09T08:51:26.286Z,13.05
2023-05-09T08:53:54.097Z,19.20
2023-05-09T08:56:22.241Z,11.95
2023-05-09T08:58:49.830Z,10.90
2023-05-09T09:01:18.118Z,17.10
2023-05-09T09:03:49.422Z,13.88
2023-05-09T09:06:18.750Z,15.93
2023-05-09T09:08:46.535Z,14.65
2023-05-09T09:11:14.385Z,13.32
2023-05-09T09:13:42.242Z,12.25
2023-05-09T09:16:19.998Z,13.70
2023-05-09T09:18:47.853Z,13.90
2023-05-09T09:21:17.162Z,10.88
2023-05-09T09:23:45.102Z,10.82
2023-05-09T09:26:12.668Z,11.55
2023-05-09T09:28:40.390Z,12.15
2023-05-09T09:31:24.210Z,11.25
2023-05-09T09:33:52.204Z,10.30
2023-05-09T09:36:29.636Z,10.75
2023-05-09T09:39:00.327Z,10.48
2023-05-09T09:41:34.625Z,12.05
2023-05-09T09:44:08.277Z,12.18
2023-05-09T09:46:46.449Z,11.55
2023-05-09T09:49:14.635Z,11.02
2023-05-09T09:51:42.377Z,12.70
2023-05-09T09:54:10.500Z,15.20
2023-05-09T09:56:42.168Z,11.77
2023-05-09T09:59:17.058Z,12.23
2023-05-09T10:02:03.984Z,9.75
2023-05-09T10:04:37.157Z,10.40
2023-05-09T10:07:06.164Z,12.23
2023-05-09T10:09:34.755Z,13.07
2023-05-09T10:12:06.280Z,13.30
2023-05-09T10:14:35.572Z,14.43
2023-05-09T10:17:04.809Z,11.45
2023-05-09T10:19:32.914Z,12.23
2023-05-09T10:22:08.846Z,14.77
2023-05-09T10:24:36.591Z,44.20
2023-05-09T10:27:05.157Z,11.05
2023-05-09T10:29:35.413Z,13.40
2023-05-09T10:32:08.278Z,13.68
2023-05-09T10:34:37.658Z,13.70
2023-05-09T10:37:05.321Z,15.52
2023-05-09T10:39:33.076Z,22.42
2023-05-09T10:42:01.529Z,11.13
2023-05-09T10:44:29.198Z,10.85
2023-05-09T10:46:56.959Z,12.60
2023-05-09T10:49:24.558Z,9.75
2023-05-09T10:51:52.161Z,9.80
2023-05-09T10:54:31.098Z,10.27
2023-05-09T10:56:58.868Z,11.90
2023-05-09T10:59:39.997Z,10.35
2023-05-09T11:02:13.326Z,8.18
2023-05-09T11:04:41.434Z,8.38
2023-05-09T11:07:30.085Z,9.13
2023-05-09T11:10:08.863Z,8.60
2023-05-09T11:12:55.506Z,8.15
2023-05-09T11:15:25.075Z,7.68
2023-05-09T11:18:05.678Z,10.43
2023-05-09T11:20:35.525Z,10.57
2023-05-09T11:23:06.736Z,9.60
2023-05-09T11:25:34.263Z,9.18
2023-05-09T11:28:02.372Z,9.48
2023-05-09T11:30:39.511Z,11.10
2023-05-09T11:33:07.858Z,13.05
2023-05-09T11:35:37.685Z,9.68
2023-05-09T11:38:09.357Z,9.23
2023-05-09T11:40:37.721Z,11.63
2023-05-09T11:43:07.827Z,12.48
2023-05-09T11:45:35.396Z,11.93
2023-05-09T11:48:08.955Z,11.45
2023-05-09T11:50:36.623Z,11.00
2023-05-09T11:53:04.196Z,10.65
2023-05-09T11:55:32.689Z,10.75
2023-05-09T11:58:00.393Z,13.20
2023-05-09T12:00:28.001Z,10.88
2023-05-09T12:02:55.886Z,11.98
2023-05-09T12:05:23.813Z,17.48
2023-05-09T12:07:52.735Z,15.38
2023-05-09T12:10:21.114Z,11.77
2023-05-09T12:12:49.540Z,13.32
2023-05-09T12:15:18.021Z,11.18
2023-05-09T12:17:49.749Z,12.55
2023-05-09T12:20:19.744Z,12.10
2023-05-09T12:22:54.425Z,14.75
2023-05-09T12:25:22.951Z,11.80
2023-05-09T12:27:50.594Z,13.25
2023-05-09T12:30:18.594Z,14.55
2023-05-09T12:32:46.607Z,14.73
2023-05-09T12:35:14.790Z,12.40
2023-05-09T12:37:56.157Z,13.98
2023-05-09T12:42:54.219Z,11.27
2023-05-09T12:45:22.615Z,11.40
2023-05-09T12:47:53.637Z,10.50
2023-05-09T12:50:21.359Z,13.35
2023-05-09T12:53:02.923Z,14.40
2023-05-09T12:55:32.647Z,12.52
2023-05-09T12:58:01.486Z,14.45
2023-05-09T13:00:29.472Z,11.90
2023-05-09T13:02:57.205Z,12.20
2023-05-09T13:05:24.989Z,12.20
2023-05-09T13:07:53.364Z,14.23
2023-05-09T13:10:24.963Z,12.95
2023-05-09T13:12:53.321Z,11.60
2023-05-09T13:15:22.431Z,12.77
2023-05-09T13:17:51.088Z,12.70
2023-05-09T13:20:19.338Z,12.93
2023-05-09T13:22:47.382Z,15.18
2023-05-09T13:25:15.972Z,11.75
2023-05-09T13:27:43.545Z,13.10
2023-05-09T13:30:11.324Z,14.38
2023-05-09T13:32:38.953Z,14.57
2023-05-09T13:35:07.950Z,17.50
2023-05-09T13:37:35.929Z,14.38
2023-05-09T13:40:04.207Z,17.15
2023-05-09T13:42:31.845Z,14.18
2023-05-09T13:44:59.356Z,13.55
2023-05-09T13:47:27.088Z,14.38
2023-05-09T13:49:54.753Z,14.55
2023-05-09T13:52:23.099Z,14.10
2023-05-09T13:54:50.778Z,15.80
2023-05-09T13:57:18.348Z,14.75
2023-05-09T13:59:45.984Z,13.55
2023-05-09T14:02:13.584Z,12.43
2023-05-09T14:04:41.634Z,12.43
2023-05-09T14:07:11.997Z,13.32
2023-05-09T14:09:40.079Z,12.63
2023-05-09T14:12:07.953Z,14.20
2023-05-09T14:14:35.513Z,14.48
2023-05-09T14:17:03.087Z,12.05
2023-05-09T14:19:30.784Z,11.00
2023-05-09T14:21:58.350Z,13.82
2023-05-09T14:24:25.924Z,14.10
2023-05-09T14:26:53.459Z,13.68
2023-05-09T14:29:21.233Z,15.18
2023-05-09T14:31:48.991Z,15.85
2023-05-09T14:34:16.525Z,10.98
2023-05-09T14:36:44.164Z,11.48
2023-05-09T14:39:11.895Z,14.35
2023-05-09T14:41:39.969Z,11.88
2023-05-09T14:44:07.537Z,11.23
2023-05-09T14:46:36.814Z,14.25
2023-05-09T14:49:04.482Z,12.50
2023-05-09T14:51:33.244Z,11.10
2023-05-09T14:54:03.847Z,14.50
2023-05-09T14:56:32.259Z,10.93
2023-05-09T14:59:00.001Z,12.15
2023-05-09T15:01:27.627Z,11.18
2023-05-09T15:03:55.207Z,10.82
2023-05-09T15:06:23.369Z,11.18
2023-05-09T15:08:51.058Z,10.57
2023-05-09T15:11:18.572Z,8.45
2023-05-09T15:13:46.102Z,9.80
2023-05-09T15:16:13.686Z,9.23
2023-05-09T15:18:45.297Z,13.63
2023-05-09T15:21:13.172Z,11.25
2023-05-09T15:23:40.926Z,7.35
2023-05-09T15:26:09.640Z,9.60
2023-05-09T15:28:37.256Z,10.73
2023-05-09T15:31:05.008Z,9.68
2023-05-09T15:33:32.834Z,9.93
2023-05-09T15:36:00.617Z,8.73
2023-05-09T15:38:28.400Z,9.90
2023-05-09T15:40:55.975Z,11.98
2023-05-09T15:43:23.655Z,7.10
2023-05-09T15:45:51.224Z,10.98
2023-05-09T15:48:19.135Z,11.18
2023-05-09T15:50:46.646Z,8.25
2023-05-09T15:53:16.027Z,10.02
2023-05-09T15:55:43.792Z,11.20
2023-05-09T15:58:11.446Z,10.93
2023-05-09T16:00:39.688Z,15.98
2023-05-09T16:03:08.067Z,14.02
2023-05-09T16:05:35.999Z,10.82
2023-05-09T16:08:03.562Z,11.45
2023-05-09T16:10:31.526Z,9.02
2023-05-09T16:12:59.104Z,9.48
2023-05-09T16:15:26.660Z,11.32
2023-05-09T16:17:54.181Z,9.20
2023-05-09T16:20:21.850Z,11.68
2023-05-09T16:22:49.425Z,10.80
2023-05-09T16:25:17.405Z,10.23
2023-05-09T16:27:44.988Z,8.38
2023-05-09T16:30:13.033Z,8.40
2023-05-09T16:32:40.824Z,9.60
2023-05-09T16:35:08.613Z,7.95
2023-05-09T16:37:36.156Z,9.68
2023-05-09T16:40:04.388Z,7.22
2023-05-09T16:42:31.931Z,7.43
2023-05-09T16:44:59.467Z,8.68
2023-05-09T16:47:27.003Z,7.85
2023-05-09T16:49:54.572Z,7.75
2023-05-09T16:52:24.007Z,7.22
2023-05-09T16:54:54.483Z,8.95
2023-05-09T16:57:22.370Z,7.00
2023-05-09T16:59:49.920Z,8.88
2023-05-09T17:02:17.488Z,8.65
2023-05-09T17:04:45.046Z,11.15
2023-05-09T17:07:14.305Z,7.45
2023-05-09T17:09:43.073Z,5.93
2023-05-09T17:12:17.281Z,5.53
2023-05-09T17:14:45.896Z,7.97
2023-05-09T17:17:14.481Z,9.75
2023-05-09T17:19:42.592Z,6.50
2023-05-09T17:22:10.327Z,9.18
2023-05-09T17:24:37.918Z,10.55
2023-05-09T17:27:05.637Z,9.27
2023-05-09T17:29:33.288Z,9.13
2023-05-09T17:32:01.175Z,10.10
2023-05-09T17:34:29.282Z,6.45
2023-05-09T17:36:56.961Z,9.25
2023-05-09T17:39:24.491Z,8.10
2023-05-09T17:41:52.077Z,9.95
2023-05-09T17:44:19.760Z,11.18
2023-05-09T17:46:48.986Z,7.70
2023-05-09T17:49:16.931Z,7.22
2023-05-09T17:51:44.722Z,7.65
2023-05-09T17:54:12.882Z,9.48
2023-05-09T17:56:40.648Z,9.60
2023-05-09T17:59:08.289Z,10.48
2023-05-09T18:01:35.867Z,9.80
2023-05-09T18:04:03.653Z,7.90
2023-05-09T18:06:31.396Z,9.43
2023-05-09T18:08:58.981Z,10.85
2023-05-09T18:11:26.830Z,8.40
2023-05-09T18:13:54.654Z,8.50
2023-05-09T18:16:22.534Z,9.63
2023-05-09T18:18:50.282Z,7.68
2023-05-09T18:21:17.806Z,7.80
2023-05-09T18:23:45.419Z,9.57
2023-05-09T18:26:12.976Z,10.02
2023-05-09T18:28:40.679Z,7.70
2023-05-09T18:31:09.507Z,9.32
2023-05-09T18:33:38.834Z,7.95
2023-05-09T18:36:08.870Z,7.05
2023-05-09T18:38:38.316Z,12.90
2023-05-09T18:41:10.194Z,6.65
2023-05-09T18:46:07.406Z,8.90
2023-05-09T18:48:35.142Z,7.70
2023-05-09T18:51:02.721Z,7.55
2023-05-09T18:53:30.857Z,7.75
2023-05-09T18:55:58.513Z,11.07
2023-05-09T18:58:26.047Z,8.82
2023-05-09T19:00:53.645Z,8.70
2023-05-09T19:03:21.452Z,7.63
2023-05-09T19:05:49.049Z,6.65
2023-05-09T19:08:16.663Z,6.68
2023-05-09T19:10:44.764Z,8.10
2023-05-09T19:13:14.732Z,8.63
2023-05-09T19:15:43.759Z,9.55
2023-05-09T19:18:12.082Z,7.13
2023-05-09T19:20:39.650Z,7.95
2023-05-09T19:23:07.194Z,7.32
2023-05-09T19:25:36.845Z,8.95
2023-05-09T19:28:04.463Z,7.35
2023-05-09T19:30:32.094Z,8.88
2023-05-09T19:32:59.709Z,11.93
2023-05-09T19:35:27.543Z,10.63
2023-05-09T19:37:55.173Z,7.90
2023-05-09T19:40:22.781Z,8.30
2023-05-09T19:42:50.372Z,8.63
2023-05-09T19:45:17.900Z,7.35
2023-05-09T19:47:45.449Z,6.38
2023-05-09T19:50:13.367Z,7.03
2023-05-09T19:52:41.475Z,7.75
2023-05-09T19:55:09.421Z,10.00
2023-05-09T19:57:36.998Z,9.18
2023-05-09T20:00:06.811Z,5.72
2023-05-09T20:02:34.522Z,7.32
2023-05-09T20:05:02.127Z,6.63
2023-05-09T20:07:29.711Z,5.40
2023-05-09T20:09:57.406Z,7.43
2023-05-09T20:12:24.957Z,8.90
2023-05-09T20:14:52.453Z,8.98
2023-05-09T20:17:20.029Z,8.82
2023-05-09T20:19:47.557Z,7.15
2023-05-09T20:22:15.068Z,6.32
2023-05-09T20:24:42.694Z,9.32
2023-05-09T20:27:10.249Z,7.03
2023-05-09T20:29:37.867Z,7.90
2023-05-09T20:32:05.698Z,8.05
2023-05-09T20:34:33.481Z,6.65
2023-05-09T20:37:01.377Z,7.20
2023-05-09T20:39:29.224Z,5.80
2023-05-09T20:41:58.672Z,6.78
2023-05-09T20:44:26.618Z,12.68
2023-05-09T20:46:54.257Z,7.50
2023-05-09T20:49:22.494Z,6.38
2023-05-09T20:51:49.996Z,6.95
2023-05-09T20:54:18.109Z,8.52
2023-05-09T20:56:45.636Z,6.30
2023-05-09T20:59:13.176Z,7.05
2023-05-09T21:01:41.803Z,8.43
2023-05-09T21:04:09.339Z,5.75
2023-05-09T21:06:37.035Z,9.85
2023-05-09T21:09:09.089Z,8.50
2023-05-09T21:11:38.232Z,12.70
2023-05-09T21:14:06.087Z,10.38
2023-05-09T21:16:33.732Z,9.07
2023-05-09T21:19:04.679Z,8.15
2023-05-09T21:21:35.741Z,6.07
2023-05-09T21:24:04.269Z,4.63
2023-05-09T21:26:31.808Z,3.72
2023-05-09T21:28:59.405Z,3.78
2023-05-09T21:31:26.972Z,3.90
2023-05-09T21:33:54.497Z,3.83
2023-05-09T21:36:21.988Z,4.57
2023-05-09T21:38:49.470Z,3.40
2023-05-09T21:41:17.111Z,2.47
2023-05-09T21:43:44.643Z,5.63
2023-05-09T21:46:12.394Z,4.53
2023-05-09T21:48:39.974Z,5.28
2023-05-09T21:51:08.232Z,3.45
2023-05-09T21:53:35.912Z,4.95
2023-05-09T21:56:03.462Z,6.13
2023-05-09T21:58:31.001Z,2.72
2023-05-09T22:00:58.559Z,2.38
2023-05-09T22:03:26.196Z,5.57
2023-05-09T22:05:53.847Z,3.20
2023-05-09T22:08:21.357Z,2.47
2023-05-09T22:10:48.861Z,2.22
2023-05-09T22:13:16.483Z,1.15
2023-05-09T22:15:44.111Z,4.13
2023-05-09T22:18:11.837Z,2.50
2023-05-09T22:20:39.403Z,1.80
2023-05-09T22:23:06.955Z,2.33
2023-05-09T22:25:34.490Z,1.65
2023-05-09T22:28:02.041Z,2.00
2023-05-09T22:30:29.632Z,1.98
2023-05-09T22:32:58.403Z,2.47
2023-05-09T22:35:26.331Z,2.70
2023-05-09T22:37:53.854Z,2.20
2023-05-09T22:40:21.379Z,1.45
2023-05-09T22:42:48.935Z,1.98
2023-05-09T22:45:16.552Z,1.23
2023-05-09T22:47:44.425Z,1.88
2023-05-09T22:50:12.802Z,1.10
2023-05-09T22:52:40.561Z,1.10
2023-05-09T22:55:08.317Z,1.30
2023-05-09T22:57:35.961Z,2.13
2023-05-09T23:00:04.199Z,1.08
2023-05-09T23:02:31.849Z,1.75
2023-05-09T23:04:59.512Z,1.13
2023-05-09T23:07:27.029Z,1.10
2023-05-09T23:09:54.557Z,1.83
2023-05-09T23:12:22.090Z,2.08
2023-05-09T23:14:49.616Z,1.95
2023-05-09T23:17:17.159Z,2.05
2023-05-09T23:19:45.854Z,2.42
2023-05-09T23:22:13.386Z,2.72
2023-05-09T23:24:41.172Z,2.85
2023-05-09T23:27:09.362Z,1.08
2023-05-09T23:29:37.114Z,1.67
2023-05-09T23:32:04.711Z,1.25
2023-05-09T23:34:32.328Z,1.65
2023-05-09T23:36:59.900Z,1.17
2023-05-09T23:39:27.422Z,1.15
2023-05-09T23:41:54.974Z,1.45
2023-05-09T23:44:22.511Z,2.28
2023-05-09T23:46:50.290Z,2.10
2023-05-09T23:49:18.171Z,3.28
2023-05-09T23:51:45.679Z,2.67
2023-05-09T23:54:13.200Z,0.95
2023-05-09T23:56:40.856Z,1.67
2023-05-09T23:59:08.359Z,2.15
